createdAt,value
2016-10-18T00:00:14.400Z,69.62
2016-10-18T00:01:14.385Z,69.53
2016-10-18T00:02:14.514Z,69.34
2016-10-18T00:03:14.432Z,69.53
2016-10-18T00:04:14.452Z,69.43
2016-10-18T00:05:14.473Z,69.53
2016-10-18T00:06:14.490Z,69.34
2016-10-18T00:07:14.507Z,69.34
2016-10-18T00:08:14.539Z,69.34
2016-10-18T00:09:14.550Z,70.01
2016-10-18T00:10:14.571Z,70.1
2016-10-18T00:11:14.624Z,70.2
2016-10-18T00:12:14.609Z,69.05
2016-10-18T00:13:14.625Z,70.1
2016-10-18T00:14:14.651Z,69.15
2016-10-18T00:15:14.666Z,70.01
2016-10-18T00:16:14.688Z,69.53
2016-10-18T00:17:14.700Z,70.01
2016-10-18T00:18:14.718Z,69.05
2016-10-18T00:19:14.739Z,70.1
2016-10-18T00:20:14.762Z,69.24
2016-10-18T00:21:14.778Z,69.43
2016-10-18T00:22:14.796Z,69.53
2016-10-18T00:23:14.938Z,69.72
2016-10-18T00:24:14.835Z,69.34
2016-10-18T00:25:14.972Z,69.43
2016-10-18T00:26:15.006Z,70.1
2016-10-18T00:27:14.989Z,70.1
2016-10-18T00:28:14.998Z,69.43
2016-10-18T00:29:15.033Z,69.62
2016-10-18T00:30:15.032Z,69.62
2016-10-18T00:31:15.040Z,69.53
2016-10-18T00:32:15.084Z,69.62
2016-10-18T00:33:15.093Z,69.34
2016-10-18T00:34:15.116Z,69.34
2016-10-18T00:35:15.127Z,69.82
2016-10-18T00:36:15.135Z,69.24
2016-10-18T00:37:15.144Z,69.91
2016-10-18T00:38:15.152Z,69.53
2016-10-18T00:39:15.151Z,70.48
2016-10-18T00:40:15.160Z,70.48
2016-10-18T00:41:15.170Z,69.91
2016-10-18T00:42:15.179Z,70.48
2016-10-18T00:43:15.291Z,70.48
2016-10-18T00:44:15.301Z,70.39
2016-10-18T00:45:15.236Z,69.82
2016-10-18T00:46:15.258Z,70.39
2016-10-18T00:47:15.279Z,70.29
2016-10-18T00:48:15.292Z,69.43
2016-10-18T00:49:15.312Z,69.82
2016-10-18T00:50:15.333Z,69.82
2016-10-18T00:51:15.351Z,70.29
2016-10-18T00:52:15.372Z,69.43
2016-10-18T00:53:15.391Z,70.67
2016-10-18T00:54:15.414Z,69.91
2016-10-18T00:55:15.743Z,70.1
2016-10-18T00:56:15.445Z,70.29
2016-10-18T00:57:15.465Z,70.39
2016-10-18T00:58:15.482Z,70.58
2016-10-18T00:59:15.501Z,70.2
2016-10-18T01:00:15.521Z,70.29
2016-10-18T01:01:15.540Z,70.39
2016-10-18T01:02:15.561Z,70.67
2016-10-18T01:03:15.578Z,70.67
2016-10-18T01:04:15.597Z,70.1
2016-10-18T01:05:15.616Z,70.39
2016-10-18T01:06:15.634Z,70.2
2016-10-18T01:07:15.655Z,70.01
2016-10-18T01:08:15.674Z,70.48
2016-10-18T01:09:15.692Z,70.2
2016-10-18T01:10:15.712Z,70.39
2016-10-18T01:11:15.730Z,70.29
2016-10-18T01:12:15.751Z,70.29
2016-10-18T01:13:15.771Z,70.29
2016-10-18T01:14:15.795Z,70.29
2016-10-18T01:15:15.806Z,70.1
2016-10-18T01:16:15.825Z,70.48
2016-10-18T01:17:15.843Z,70.96
2016-10-18T01:18:15.864Z,70.2
2016-10-18T01:19:15.882Z,70.48
2016-10-18T01:20:15.903Z,71.06
2016-10-18T01:21:15.918Z,70.58
2016-10-18T01:22:15.939Z,70.87
2016-10-18T01:23:15.957Z,70.29
2016-10-18T01:24:15.980Z,70.96
2016-10-18T01:25:15.997Z,70.29
2016-10-18T01:26:16.017Z,70.29
2016-10-18T01:27:16.039Z,70.1
2016-10-18T01:28:16.051Z,70.1
2016-10-18T01:29:16.072Z,70.1
2016-10-18T01:30:16.099Z,70.96
2016-10-18T01:31:16.107Z,70.96
2016-10-18T01:32:16.128Z,70.67
2016-10-18T01:33:16.148Z,70.96
2016-10-18T01:34:16.165Z,70.67
2016-10-18T01:35:16.185Z,70.77
2016-10-18T01:36:16.204Z,70.58
2016-10-18T01:37:16.226Z,70.87
2016-10-18T01:38:16.246Z,70.87
2016-10-18T01:39:16.262Z,70.48
2016-10-18T01:40:16.278Z,70.87
2016-10-18T01:41:16.338Z,70.39
2016-10-18T01:42:16.325Z,70.77
2016-10-18T01:43:16.336Z,70.96
2016-10-18T01:44:16.354Z,70.87
2016-10-18T01:45:16.376Z,70.87
2016-10-18T01:46:16.395Z,70.48
2016-10-18T01:47:16.413Z,70.48
2016-10-18T01:48:16.437Z,70.48
2016-10-18T01:49:16.449Z,71.06
2016-10-18T01:50:16.465Z,70.96
2016-10-18T01:51:16.486Z,70.58
2016-10-18T01:52:16.507Z,71.15
2016-10-18T01:53:16.523Z,70.87
2016-10-18T01:54:16.543Z,71.25
2016-10-18T01:55:16.561Z,71.34
2016-10-18T01:56:16.578Z,70.96
2016-10-18T01:57:16.600Z,70.96
2016-10-18T01:58:16.618Z,70.58
2016-10-18T01:59:16.635Z,71.06
2016-10-18T02:00:16.655Z,71.25
2016-10-18T02:01:16.673Z,71.25
2016-10-18T02:02:16.692Z,71.25
2016-10-18T02:03:16.711Z,71.15
2016-10-18T02:04:16.730Z,71.25
2016-10-18T02:05:16.750Z,71.25
2016-10-18T02:06:16.766Z,70.96
2016-10-18T02:07:16.785Z,71.06
2016-10-18T02:08:16.919Z,71.06
2016-10-18T02:09:16.934Z,71.06
2016-10-18T02:10:16.928Z,71.06
2016-10-18T02:11:16.946Z,70.77
2016-10-18T02:12:17.079Z,70.77
2016-10-18T02:13:17.076Z,70.77
2016-10-18T02:14:17.075Z,70.87
2016-10-18T02:15:17.083Z,70.77
2016-10-18T02:16:17.094Z,71.06
2016-10-18T02:17:17.311Z,70.96
2016-10-18T02:18:17.111Z,70.87
2016-10-18T02:19:17.107Z,70.96
2016-10-18T02:20:17.120Z,70.96
2016-10-18T02:21:17.269Z,70.87
2016-10-18T02:22:17.274Z,71.06
2016-10-18T02:23:17.277Z,71.25
2016-10-18T02:24:17.290Z,71.15
2016-10-18T02:25:17.292Z,71.25
2016-10-18T02:26:17.241Z,71.06
2016-10-18T02:27:17.323Z,71.15
2016-10-18T02:28:17.251Z,71.53
2016-10-18T02:29:17.284Z,71.53
2016-10-18T02:30:17.290Z,71.15
2016-10-18T02:31:17.322Z,71.63
2016-10-18T02:32:17.368Z,71.44
2016-10-18T02:33:17.308Z,71.53
2016-10-18T02:34:17.315Z,71.44
2016-10-18T02:35:17.329Z,71.34
2016-10-18T02:36:17.342Z,71.25
2016-10-18T02:37:17.401Z,71.34
2016-10-18T02:38:17.370Z,71.34
2016-10-18T02:39:17.428Z,71.25
2016-10-18T02:40:17.404Z,71.15
2016-10-18T02:41:17.426Z,71.06
2016-10-18T02:42:17.444Z,70.67
2016-10-18T02:43:17.464Z,71.82
2016-10-18T02:44:17.479Z,71.53
2016-10-18T02:45:17.502Z,71.06
2016-10-18T02:46:17.522Z,71.25
2016-10-18T02:47:17.539Z,71.63
2016-10-18T02:48:17.596Z,71.63
2016-10-18T02:49:17.617Z,70.96
2016-10-18T02:50:17.597Z,71.72
2016-10-18T02:51:17.616Z,71.06
2016-10-18T02:52:17.633Z,70.77
2016-10-18T02:53:17.649Z,71.72
2016-10-18T02:54:17.667Z,71.53
2016-10-18T02:55:17.688Z,71.72
2016-10-18T02:56:17.707Z,71.25
2016-10-18T02:57:17.748Z,71.25
2016-10-18T02:58:17.746Z,71.34
2016-10-18T02:59:17.763Z,71.34
2016-10-18T03:00:17.782Z,71.44
2016-10-18T03:01:17.806Z,71.44
2016-10-18T03:02:17.828Z,71.25
2016-10-18T03:03:17.836Z,71.44
2016-10-18T03:04:17.855Z,71.25
2016-10-18T03:05:17.877Z,71.34
2016-10-18T03:06:17.977Z,71.44
2016-10-18T03:07:17.941Z,71.44
2016-10-18T03:08:17.935Z,71.53
2016-10-18T03:09:18.042Z,71.44
2016-10-18T03:10:18.045Z,71.34
2016-10-18T03:11:17.992Z,71.34
2016-10-18T03:12:18.008Z,71.34
2016-10-18T03:13:18.055Z,71.44
2016-10-18T03:14:18.149Z,71.53
2016-10-18T03:15:18.063Z,71.44
2016-10-18T03:16:18.080Z,71.44
2016-10-18T03:17:18.102Z,71.44
2016-10-18T03:18:18.117Z,71.44
2016-10-18T03:19:18.136Z,71.34
2016-10-18T03:20:18.153Z,71.34
2016-10-18T03:21:18.173Z,71.53
2016-10-18T03:22:18.191Z,71.44
2016-10-18T03:23:18.213Z,71.53
2016-10-18T03:24:18.233Z,71.53
2016-10-18T03:25:18.249Z,71.44
2016-10-18T03:26:18.265Z,71.44
2016-10-18T03:27:18.290Z,71.44
2016-10-18T03:28:18.310Z,71.53
2016-10-18T03:29:18.322Z,71.53
2016-10-18T03:30:18.340Z,71.44
2016-10-18T03:31:18.364Z,71.44
2016-10-18T03:32:18.381Z,71.44
2016-10-18T03:33:18.399Z,71.44
2016-10-18T03:34:18.416Z,71.34
2016-10-18T03:35:18.438Z,71.53
2016-10-18T03:36:18.459Z,71.44
2016-10-18T03:37:18.470Z,71.53
2016-10-18T03:38:18.494Z,71.34
2016-10-18T03:39:18.511Z,71.44
2016-10-18T03:40:18.533Z,71.44
2016-10-18T03:41:18.546Z,71.53
2016-10-18T03:42:18.565Z,71.44
2016-10-18T03:43:18.584Z,71.53
2016-10-18T03:44:18.603Z,71.44
2016-10-18T03:45:18.619Z,71.53
2016-10-18T03:46:18.640Z,71.44
2016-10-18T03:47:18.658Z,71.44
2016-10-18T03:48:18.676Z,71.53
2016-10-18T03:49:18.696Z,71.44
2016-10-18T03:50:18.713Z,71.15
2016-10-18T03:51:18.736Z,71.15
2016-10-18T03:52:18.755Z,71.41
2016-10-18T03:53:18.768Z,71.34
2016-10-18T03:54:18.787Z,71.34
2016-10-18T03:55:18.810Z,71.31
2016-10-18T03:56:18.828Z,71.34
2016-10-18T03:57:18.844Z,71.44
2016-10-18T03:58:18.862Z,71.41
2016-10-18T03:59:18.888Z,71.31
2016-10-18T04:00:18.903Z,71.5
2016-10-18T04:01:18.917Z,71.31
2016-10-18T04:02:18.935Z,71.41
2016-10-18T04:03:18.959Z,71.34
2016-10-18T04:04:18.976Z,71.34
2016-10-18T04:05:18.993Z,71.34
2016-10-18T04:06:19.015Z,71.15
2016-10-18T04:07:19.346Z,71.06
2016-10-18T04:08:19.050Z,71.15
2016-10-18T04:09:19.065Z,71.25
2016-10-18T04:10:19.084Z,71.31
2016-10-18T04:11:19.103Z,71.15
2016-10-18T04:12:19.124Z,71.34
2016-10-18T04:13:19.142Z,71.31
2016-10-18T04:14:19.166Z,71.02
2016-10-18T04:15:19.180Z,71.25
2016-10-18T04:16:19.197Z,71.59
2016-10-18T04:17:19.219Z,71.15
2016-10-18T04:18:19.243Z,71.34
2016-10-18T04:19:19.253Z,71.63
2016-10-18T04:20:19.271Z,71.44
2016-10-18T04:21:19.302Z,71.25
2016-10-18T04:22:19.311Z,71.31
2016-10-18T04:23:19.326Z,71.44
2016-10-18T04:24:19.349Z,71.21
2016-10-18T04:25:19.369Z,71.15
2016-10-18T04:26:19.385Z,71.06
2016-10-18T04:27:19.402Z,71.53
2016-10-18T04:28:19.420Z,71.59
2016-10-18T04:29:19.440Z,71.63
2016-10-18T04:30:19.462Z,71.98
2016-10-18T04:31:19.482Z,71.92
2016-10-18T04:32:19.498Z,71.82
2016-10-18T04:33:19.512Z,71.78
2016-10-18T04:34:19.530Z,71.72
2016-10-18T04:35:19.548Z,71.69
2016-10-18T04:36:19.568Z,71.78
2016-10-18T04:37:19.585Z,71.78
2016-10-18T04:38:19.608Z,71.82
2016-10-18T04:39:19.626Z,71.92
2016-10-18T04:40:19.646Z,71.78
2016-10-18T04:41:19.661Z,71.78
2016-10-18T04:42:19.680Z,71.78
2016-10-18T04:43:19.698Z,72.01
2016-10-18T04:44:19.722Z,71.69
2016-10-18T04:45:19.738Z,71.78
2016-10-18T04:46:19.754Z,71.82
2016-10-18T04:47:19.773Z,71.88
2016-10-18T04:48:19.791Z,71.92
2016-10-18T04:49:19.810Z,71.92
2016-10-18T04:50:19.862Z,71.82
2016-10-18T04:51:19.870Z,71.92
2016-10-18T04:52:19.867Z,71.82
2016-10-18T04:53:19.884Z,71.92
2016-10-18T04:54:19.902Z,71.88
2016-10-18T04:55:19.920Z,71.72
2016-10-18T04:56:19.940Z,72.01
2016-10-18T04:57:19.957Z,71.72
2016-10-18T04:58:19.984Z,71.98
2016-10-18T04:59:19.993Z,71.72
2016-10-18T05:00:20.011Z,72.01
2016-10-18T05:01:20.031Z,71.34
2016-10-18T05:02:20.051Z,71.82
2016-10-18T05:03:20.068Z,71.44
2016-10-18T05:04:20.090Z,71.63
2016-10-18T05:05:20.104Z,71.63
2016-10-18T05:06:20.122Z,71.53
2016-10-18T05:07:20.142Z,71.53
2016-10-18T05:08:20.162Z,71.63
2016-10-18T05:09:20.179Z,71.53
2016-10-18T05:10:20.197Z,71.53
2016-10-18T05:11:20.215Z,71.72
2016-10-18T05:12:20.239Z,71.63
2016-10-18T05:13:20.257Z,71.63
2016-10-18T05:14:20.269Z,71.53
2016-10-18T05:15:20.290Z,71.53
2016-10-18T05:16:20.307Z,71.63
2016-10-18T05:17:20.328Z,71.53
2016-10-18T05:18:20.346Z,71.72
2016-10-18T05:19:20.364Z,71.53
2016-10-18T05:20:20.383Z,71.44
2016-10-18T05:21:20.397Z,71.72
2016-10-18T05:22:20.419Z,71.72
2016-10-18T05:23:20.437Z,71.72
2016-10-18T05:24:20.456Z,71.72
2016-10-18T05:25:20.471Z,71.72
2016-10-18T05:26:20.494Z,71.72
2016-10-18T05:27:20.508Z,71.72
2016-10-18T05:28:20.532Z,71.63
2016-10-18T05:29:20.604Z,71.82
2016-10-18T05:30:20.567Z,71.72
2016-10-18T05:31:20.584Z,71.63
2016-10-18T05:32:20.982Z,71.63
2016-10-18T05:33:20.624Z,71.63
2016-10-18T05:34:20.649Z,71.63
2016-10-18T05:35:20.658Z,71.82
2016-10-18T05:36:20.675Z,71.63
2016-10-18T05:37:21.010Z,72.3
2016-10-18T05:38:20.714Z,71.82
2016-10-18T05:39:20.737Z,71.53
2016-10-18T05:40:20.752Z,71.63
2016-10-18T05:41:20.768Z,71.63
2016-10-18T05:42:20.797Z,71.53
2016-10-18T05:43:20.806Z,71.82
2016-10-18T05:44:20.829Z,71.53
2016-10-18T05:45:20.845Z,71.53
2016-10-18T05:46:20.871Z,71.63
2016-10-18T05:47:20.883Z,71.53
2016-10-18T05:48:20.939Z,72.3
2016-10-18T05:49:20.923Z,71.53
2016-10-18T05:50:20.939Z,72.11
2016-10-18T05:51:20.959Z,72.01
2016-10-18T05:52:20.978Z,71.82
2016-10-18T05:53:20.995Z,72.11
2016-10-18T05:54:21.012Z,72.11
2016-10-18T05:55:21.031Z,72.39
2016-10-18T05:56:21.052Z,72.2
2016-10-18T05:57:21.072Z,72.3
2016-10-18T05:58:21.086Z,72.3
2016-10-18T05:59:21.111Z,72.2
2016-10-18T06:00:21.122Z,72.01
2016-10-18T06:01:21.142Z,72.3
2016-10-18T06:02:21.165Z,71.92
2016-10-18T06:03:21.179Z,72.01
2016-10-18T06:04:21.197Z,72.68
2016-10-18T06:05:21.219Z,72.78
2016-10-18T06:06:21.236Z,72.68
2016-10-18T06:07:21.253Z,72.78
2016-10-18T06:08:21.273Z,72.3
2016-10-18T06:09:21.291Z,72.49
2016-10-18T06:10:21.310Z,72.3
2016-10-18T06:11:21.328Z,72.68
2016-10-18T06:12:21.345Z,72.3
2016-10-18T06:13:21.365Z,72.58
2016-10-18T06:14:21.384Z,72.2
2016-10-18T06:15:21.407Z,72.49
2016-10-18T06:16:21.421Z,72.3
2016-10-18T06:17:21.439Z,72.39
2016-10-18T06:18:21.495Z,72.3
2016-10-18T06:19:21.477Z,72.78
2016-10-18T06:20:21.496Z,72.68
2016-10-18T06:21:21.517Z,72.39
2016-10-18T06:22:21.531Z,72.58
2016-10-18T06:23:21.563Z,72.58
2016-10-18T06:24:21.571Z,73.16
2016-10-18T06:25:21.587Z,72.68
2016-10-18T06:26:21.608Z,73.16
2016-10-18T06:27:21.626Z,73.25
2016-10-18T06:28:21.646Z,73.07
2016-10-18T06:29:21.701Z,73.16
2016-10-18T06:30:21.683Z,72.97
2016-10-18T06:31:22.018Z,73.25
2016-10-18T06:32:21.719Z,73.25
2016-10-18T06:33:21.738Z,73.44
2016-10-18T06:34:21.758Z,73.35
2016-10-18T06:35:21.776Z,73.16
2016-10-18T06:36:21.793Z,73.07
2016-10-18T06:37:21.811Z,73.16
2016-10-18T06:38:21.856Z,73.25
2016-10-18T06:39:21.864Z,73.35
2016-10-18T06:40:21.873Z,73.25
2016-10-18T06:41:21.885Z,73.07
2016-10-18T06:42:21.907Z,74.02
2016-10-18T06:43:21.924Z,73.92
2016-10-18T06:44:21.970Z,74.02
2016-10-18T06:45:21.961Z,74.02
2016-10-18T06:46:22.027Z,73.35
2016-10-18T06:47:22.001Z,73.44
2016-10-18T06:48:22.020Z,73.63
2016-10-18T06:49:22.038Z,73.63
2016-10-18T06:50:22.054Z,73.73
2016-10-18T06:51:22.077Z,73.63
2016-10-18T06:52:22.097Z,73.73
2016-10-18T06:53:22.113Z,73.63
2016-10-18T06:54:22.129Z,73.54
2016-10-18T06:55:22.151Z,73.63
2016-10-18T06:56:22.170Z,73.54
2016-10-18T06:57:22.186Z,73.54
2016-10-18T06:58:22.209Z,73.35
2016-10-18T06:59:22.221Z,73.92
2016-10-18T07:00:22.240Z,73.25
2016-10-18T07:01:22.266Z,73.25
2016-10-18T07:02:22.282Z,73.54
2016-10-18T07:03:22.296Z,73.73
2016-10-18T07:04:22.315Z,73.73
2016-10-18T07:05:22.333Z,73.73
2016-10-18T07:06:22.355Z,73.92
2016-10-18T07:07:22.370Z,73.73
2016-10-18T07:08:22.390Z,74.02
2016-10-18T07:09:22.410Z,74.11
2016-10-18T07:10:22.430Z,73.63
2016-10-18T07:11:22.449Z,73.44
2016-10-18T07:12:22.467Z,73.92
2016-10-18T07:13:22.486Z,73.83
2016-10-18T07:14:22.503Z,73.63
2016-10-18T07:15:22.521Z,73.83
2016-10-18T07:16:22.578Z,73.73
2016-10-18T07:17:22.559Z,73.92
2016-10-18T07:18:22.578Z,74.11
2016-10-18T07:19:22.599Z,74.59
2016-10-18T07:20:22.625Z,74.4
2016-10-18T07:21:22.638Z,74.3
2016-10-18T07:22:22.747Z,74.02
2016-10-18T07:23:22.781Z,74.11
2016-10-18T07:24:22.767Z,73.73
2016-10-18T07:25:22.802Z,73.92
2016-10-18T07:26:22.807Z,73.92
2016-10-18T07:27:22.816Z,73.54
2016-10-18T07:28:22.816Z,73.73
2016-10-18T07:29:22.825Z,73.73
2016-10-18T07:30:22.832Z,73.86
2016-10-18T07:31:22.821Z,73.92
2016-10-18T07:32:22.840Z,73.92
2016-10-18T07:33:22.863Z,73.92
2016-10-18T07:34:22.879Z,74.34
2016-10-18T07:35:22.897Z,74.49
2016-10-18T07:36:22.915Z,74.02
2016-10-18T07:37:22.932Z,74.02
2016-10-18T07:38:22.954Z,74.11
2016-10-18T07:39:22.971Z,74.34
2016-10-18T07:40:22.992Z,74.44
2016-10-18T07:41:23.009Z,74.3
2016-10-18T07:42:23.026Z,74.73
2016-10-18T07:43:23.046Z,74.24
2016-10-18T07:44:23.065Z,74.73
2016-10-18T07:45:23.085Z,74.34
2016-10-18T07:46:23.108Z,74.44
2016-10-18T07:47:23.125Z,74.24
2016-10-18T07:48:23.140Z,74.44
2016-10-18T07:49:23.474Z,74.53
2016-10-18T07:50:23.177Z,73.96
2016-10-18T07:51:23.202Z,74.82
2016-10-18T07:52:23.214Z,74.63
2016-10-18T07:53:23.238Z,74.82
2016-10-18T07:54:23.252Z,73.96
2016-10-18T07:55:23.269Z,74.53
2016-10-18T07:56:23.585Z,74.34
2016-10-18T07:57:23.310Z,74.82
2016-10-18T07:58:23.334Z,74.44
2016-10-18T07:59:23.355Z,75.1
2016-10-18T08:00:23.368Z,75.01
2016-10-18T08:01:23.386Z,75.1
2016-10-18T08:02:23.402Z,75.01
2016-10-18T08:03:23.424Z,75.59
2016-10-18T08:04:23.441Z,75.39
2016-10-18T08:05:23.461Z,75.78
2016-10-18T08:06:23.479Z,75.49
2016-10-18T08:07:23.498Z,75.96
2016-10-18T08:08:23.557Z,75.39
2016-10-18T08:09:23.533Z,75.68
2016-10-18T08:10:23.591Z,75.68
2016-10-18T08:11:23.572Z,75.68
2016-10-18T08:12:23.592Z,75.78
2016-10-18T08:13:23.609Z,75.87
2016-10-18T08:14:23.631Z,75.78
2016-10-18T08:15:23.657Z,75.78
2016-10-18T08:16:23.670Z,75.49
2016-10-18T08:17:23.689Z,75.49
2016-10-18T08:18:23.707Z,75.49
2016-10-18T08:19:23.725Z,75.78
2016-10-18T08:20:23.745Z,75.96
2016-10-18T08:21:23.768Z,75.39
2016-10-18T08:22:23.782Z,75.68
2016-10-18T08:23:23.800Z,75.49
2016-10-18T08:24:23.818Z,75.3
2016-10-18T08:25:23.841Z,75.49
2016-10-18T08:26:23.856Z,75.59
2016-10-18T08:27:23.875Z,75.96
2016-10-18T08:28:23.896Z,75.34
2016-10-18T08:29:23.916Z,75.59
2016-10-18T08:30:23.933Z,75.01
2016-10-18T08:31:23.955Z,74.95
2016-10-18T08:32:23.973Z,75.14
2016-10-18T08:33:23.994Z,75.71
2016-10-18T08:34:24.011Z,75.34
2016-10-18T08:35:24.030Z,75.91
2016-10-18T08:36:24.050Z,74.76
2016-10-18T08:37:24.070Z,74.76
2016-10-18T08:38:24.087Z,75.34
2016-10-18T08:39:24.107Z,75.91
2016-10-18T08:40:24.127Z,75.34
2016-10-18T08:41:24.146Z,75.71
2016-10-18T08:42:24.164Z,74.95
2016-10-18T08:43:24.185Z,75.05
2016-10-18T08:44:24.201Z,75.14
2016-10-18T08:45:24.223Z,75.14
2016-10-18T08:46:24.359Z,74.76
2016-10-18T08:47:24.365Z,74.85
2016-10-18T08:48:24.374Z,75.05
2016-10-18T08:49:24.408Z,74.85
2016-10-18T08:50:24.419Z,74.66
2016-10-18T08:51:24.426Z,74.51
2016-10-18T08:52:24.425Z,74.32
2016-10-18T08:53:24.434Z,74.9
2016-10-18T08:54:24.513Z,74.7
2016-10-18T08:55:24.511Z,74.13
2016-10-18T08:56:24.509Z,74.51
2016-10-18T08:57:24.519Z,74.04
2016-10-18T08:58:24.527Z,74.22
2016-10-18T08:59:24.537Z,73.94
2016-10-18T09:00:24.546Z,73.84
2016-10-18T09:01:24.544Z,74.41
2016-10-18T09:02:24.553Z,74.04
2016-10-18T09:03:24.668Z,73.75
2016-10-18T09:04:24.686Z,74.04
2016-10-18T09:05:24.696Z,74.07
2016-10-18T09:06:24.719Z,74.26
2016-10-18T09:07:24.647Z,74.36
2016-10-18T09:08:24.670Z,73.88
2016-10-18T09:09:24.689Z,73.79
2016-10-18T09:10:24.710Z,74.16
2016-10-18T09:11:24.730Z,73.5
2016-10-18T09:12:24.748Z,73.5
2016-10-18T09:13:24.768Z,73.21
2016-10-18T09:14:24.786Z,73.4
2016-10-18T09:15:24.806Z,74.16
2016-10-18T09:16:24.829Z,73.88
2016-10-18T09:17:24.848Z,73.97
2016-10-18T09:18:24.866Z,73.69
2016-10-18T09:19:24.884Z,73.97
2016-10-18T09:20:24.904Z,73.69
2016-10-18T09:21:24.928Z,74.07
2016-10-18T09:22:24.949Z,73.88
2016-10-18T09:23:24.970Z,74.16
2016-10-18T09:24:25.036Z,73.88
2016-10-18T09:25:25.005Z,74.01
2016-10-18T09:26:25.030Z,73.63
2016-10-18T09:27:25.042Z,73.54
2016-10-18T09:28:25.063Z,74.3
2016-10-18T09:29:25.090Z,74.49
2016-10-18T09:30:25.103Z,74.11
2016-10-18T09:31:25.125Z,73.82
2016-10-18T09:32:25.182Z,74.11
2016-10-18T09:33:25.168Z,73.24
2016-10-18T09:34:25.185Z,73.63
2016-10-18T09:35:25.203Z,73.54
2016-10-18T09:36:25.236Z,73.24
2016-10-18T09:37:25.245Z,73.44
2016-10-18T09:38:25.306Z,73.82
2016-10-18T09:39:25.285Z,73.24
2016-10-18T09:40:25.305Z,73.05
2016-10-18T09:41:25.327Z,73.15
2016-10-18T09:42:25.349Z,73.24
2016-10-18T09:43:25.364Z,73.91
2016-10-18T09:44:25.386Z,73.54
2016-10-18T09:45:25.406Z,74.11
2016-10-18T09:46:25.426Z,74.2
2016-10-18T09:47:25.443Z,73.72
2016-10-18T09:48:25.501Z,73.82
2016-10-18T09:49:25.525Z,74.4
2016-10-18T09:50:25.510Z,74.3
2016-10-18T09:51:25.525Z,74.11
2016-10-18T09:52:25.551Z,74.58
2016-10-18T09:53:25.566Z,75.01
2016-10-18T09:54:25.588Z,74.3
2016-10-18T09:55:25.607Z,75.2
2016-10-18T09:56:25.626Z,75.29
2016-10-18T09:57:25.647Z,75.1
2016-10-18T09:58:25.668Z,75.01
2016-10-18T09:59:25.687Z,74.91
2016-10-18T10:00:25.710Z,75.68
2016-10-18T10:01:25.730Z,75.58
2016-10-18T10:02:25.746Z,75.01
2016-10-18T10:03:25.768Z,74.72
2016-10-18T10:04:25.791Z,75.29
2016-10-18T10:05:25.816Z,75.39
2016-10-18T10:06:25.833Z,74.62
2016-10-18T10:07:25.851Z,75.2
2016-10-18T10:08:25.872Z,74.91
2016-10-18T10:09:25.891Z,74.82
2016-10-18T10:10:25.910Z,74.82
2016-10-18T10:11:25.930Z,74.52
2016-10-18T10:12:25.956Z,75.01
2016-10-18T10:13:25.978Z,74.37
2016-10-18T10:14:25.995Z,75.01
2016-10-18T10:15:26.014Z,74.85
2016-10-18T10:16:26.039Z,75.2
2016-10-18T10:17:26.055Z,74.33
2016-10-18T10:18:26.075Z,74.52
2016-10-18T10:19:26.096Z,74.08
2016-10-18T10:20:26.122Z,74.33
2016-10-18T10:21:26.139Z,74.52
2016-10-18T10:22:26.155Z,74.15
2016-10-18T10:23:26.177Z,74.52
2016-10-18T10:24:26.316Z,74.33
2016-10-18T10:25:26.330Z,74.82
2016-10-18T10:26:26.330Z,74.15
2016-10-18T10:27:26.348Z,74.72
2016-10-18T10:28:26.518Z,74.62
2016-10-18T10:29:26.526Z,75.1
2016-10-18T10:30:26.530Z,74.62
2016-10-18T10:31:26.534Z,74.52
2016-10-18T10:32:26.678Z,74.82
2016-10-18T10:33:26.552Z,74.82
2016-10-18T10:34:26.561Z,74.15
2016-10-18T10:35:26.571Z,75.39
2016-10-18T10:36:26.609Z,74.62
2016-10-18T10:37:26.659Z,74.91
2016-10-18T10:38:26.626Z,75.52
2016-10-18T10:39:26.636Z,75.23
2016-10-18T10:40:26.634Z,74.72
2016-10-18T10:41:26.645Z,75.04
2016-10-18T10:42:26.773Z,75.23
2016-10-18T10:43:26.661Z,75.29
2016-10-18T10:44:26.709Z,75.1
2016-10-18T10:45:26.715Z,75.14
2016-10-18T10:46:26.743Z,75.23
2016-10-18T10:47:26.751Z,75.1
2016-10-18T10:48:26.697Z,75.2
2016-10-18T10:49:26.717Z,74.76
2016-10-18T10:50:26.747Z,74.82
2016-10-18T10:51:26.758Z,74.82
2016-10-18T10:52:26.895Z,75.1
2016-10-18T10:53:26.797Z,74.43
2016-10-18T10:54:26.821Z,75.04
2016-10-18T10:55:26.840Z,74.91
2016-10-18T10:56:26.862Z,75.23
2016-10-18T10:57:26.883Z,75.43
2016-10-18T10:58:26.902Z,75.23
2016-10-18T10:59:26.925Z,75.04
2016-10-18T11:00:26.944Z,74.76
2016-10-18T11:01:26.964Z,74.66
2016-10-18T11:02:26.994Z,74.76
2016-10-18T11:03:27.008Z,74.76
2016-10-18T11:04:27.026Z,73.99
2016-10-18T11:05:27.193Z,74.18
2016-10-18T11:06:27.176Z,74.27
2016-10-18T11:07:27.185Z,73.61
2016-10-18T11:08:27.209Z,73.32
2016-10-18T11:09:27.217Z,73.61
2016-10-18T11:10:27.227Z,73.61
2016-10-18T11:11:27.235Z,73.51
2016-10-18T11:12:27.243Z,73.61
2016-10-18T11:13:27.242Z,73.51
2016-10-18T11:14:27.251Z,73.32
2016-10-18T11:15:27.261Z,73.41
2016-10-18T11:16:27.403Z,73.41
2016-10-18T11:17:27.412Z,73.16
2016-10-18T11:18:27.341Z,73.51
2016-10-18T11:19:27.346Z,73.65
2016-10-18T11:20:27.468Z,73.45
2016-10-18T11:21:27.476Z,73.45
2016-10-18T11:22:27.476Z,74.12
2016-10-18T11:23:27.512Z,74.31
2016-10-18T11:24:27.521Z,73.65
2016-10-18T11:25:27.528Z,73.45
2016-10-18T11:26:27.535Z,74.02
2016-10-18T11:27:27.535Z,73.55
2016-10-18T11:28:27.544Z,73.55
2016-10-18T11:29:27.553Z,73.45
2016-10-18T11:30:27.576Z,73.45
2016-10-18T11:31:27.798Z,73.55
2016-10-18T11:32:27.613Z,73.45
2016-10-18T11:33:27.633Z,72.88
2016-10-18T11:34:27.653Z,73.45
2016-10-18T11:35:27.671Z,73.07
2016-10-18T11:36:27.692Z,72.39
2016-10-18T11:37:27.717Z,72.78
2016-10-18T11:38:27.780Z,72.78
2016-10-18T11:39:28.076Z,72.78
2016-10-18T11:40:27.775Z,72.78
2016-10-18T11:41:27.803Z,72.2
2016-10-18T11:42:27.821Z,72.78
2016-10-18T11:43:27.840Z,72.11
2016-10-18T11:44:27.861Z,72.63
2016-10-18T11:45:27.889Z,72.72
2016-10-18T11:46:27.905Z,72.72
2016-10-18T11:47:27.925Z,72.43
2016-10-18T11:48:27.943Z,72.81
2016-10-18T11:49:27.968Z,72.05
2016-10-18T11:50:27.990Z,71.86
2016-10-18T11:51:28.010Z,72.33
2016-10-18T11:52:28.030Z,71.76
2016-10-18T11:53:28.089Z,71.12
2016-10-18T11:54:28.077Z,70.8
2016-10-18T11:55:28.099Z,70.74
2016-10-18T11:56:28.119Z,70.17
2016-10-18T11:57:28.137Z,71.28
2016-10-18T11:58:28.159Z,70.74
2016-10-18T11:59:28.183Z,70.17
2016-10-18T12:00:28.202Z,70.84
2016-10-18T12:01:28.223Z,69.78
2016-10-18T12:02:28.251Z,69.87
2016-10-18T12:03:28.274Z,70.36
2016-10-18T12:04:28.295Z,69.59
2016-10-18T12:05:28.311Z,69.59
2016-10-18T12:06:28.329Z,69.49
2016-10-18T12:07:28.352Z,69.87
2016-10-18T12:08:28.375Z,69.11
2016-10-18T12:09:28.399Z,69.34
2016-10-18T12:10:28.415Z,69.59
2016-10-18T12:11:28.441Z,69.43
2016-10-18T12:12:28.460Z,69.62
2016-10-18T12:13:28.483Z,68.95
2016-10-18T12:14:28.512Z,69.53
2016-10-18T12:15:28.526Z,69.34
2016-10-18T12:16:28.548Z,69.24
2016-10-18T12:17:28.569Z,69.05
2016-10-18T12:18:28.593Z,69.24
2016-10-18T12:19:28.609Z,69.53
2016-10-18T12:20:28.642Z,69.62
2016-10-18T12:21:28.657Z,69.14
2016-10-18T12:22:28.676Z,68.95
2016-10-18T12:23:28.700Z,68.85
2016-10-18T12:24:28.719Z,69.14
2016-10-18T12:25:28.740Z,69.34
2016-10-18T12:26:28.761Z,68.76
2016-10-18T12:27:28.787Z,69.14
2016-10-18T12:28:28.809Z,68.85
2016-10-18T12:29:28.833Z,69.18
2016-10-18T12:30:28.891Z,68.89
2016-10-18T12:31:28.878Z,68.76
2016-10-18T12:32:28.892Z,68.47
2016-10-18T12:33:28.920Z,68.85
2016-10-18T12:34:28.943Z,69.37
2016-10-18T12:35:28.966Z,68.47
2016-10-18T12:36:28.980Z,68.51
2016-10-18T12:37:29.003Z,68.89
2016-10-18T12:38:29.024Z,68.66
2016-10-18T12:39:29.157Z,68.98
2016-10-18T12:40:29.181Z,68.66
2016-10-18T12:41:29.181Z,68.95
2016-10-18T12:42:29.317Z,69.24
2016-10-18T12:43:29.219Z,69.34
2016-10-18T12:44:29.318Z,69.05
2016-10-18T12:45:29.316Z,68.66
2016-10-18T12:46:29.326Z,69.24
2016-10-18T12:47:29.477Z,69.34
2016-10-18T12:48:29.343Z,68.66
2016-10-18T12:49:29.352Z,68.18
2016-10-18T12:50:29.488Z,68.57
2016-10-18T12:51:29.496Z,68.28
2016-10-18T12:52:29.552Z,68.37
2016-10-18T12:53:29.517Z,68.37
2016-10-18T12:54:29.531Z,68.57